Ampton, United Kingdom
Current Conditions -  °F | °C
As of 4:15 PM on Friday 24 Oct 2014 (Local Time) from EGUL Reporting Station
Light Rain Light Rain  
Wind Chill: 61°   Ceiling: 2300
Heat Index: 61°   Visibility: 6mi
Dew Point: 61°   Wind: 7mph
Humidity: 100%   Direction: 200°SSW
Pressure: 29.87"   Gusts: NA
Location:  52.33°N, 0.85°E
Report Text: EGUL 241515Z AUTO 20006KT 9999 -RA OVC023 16/16 A2987 RMK AO2 RAB1515DZE1500
Loading
Personal Weather Stations






























Interactive Weather Map
Tropical Storm Tracking
New forecast layout! Learn more

10-Day Weather Forecast

Advertisements
Track Severe Weather on mobile